sensor_id;sensor_type;location;lat;lon;timestamp;P1;durP1;ratioP1;P2;durP2;ratioP2
8958;SDS011;4514;49.476;8.484;2023-01-19T00:02:25;11.20;;;8.63;;
8958;SDS011;4514;49.476;8.484;2023-01-19T00:04:53;11.00;;;8.77;;
8958;SDS011;4514;49.476;8.484;2023-01-19T00:07:18;10.30;;;8.73;;
8958;SDS011;4514;49.476;8.484;2023-01-19T00:09:44;12.37;;;9.10;;
8958;SDS011;4514;49.476;8.484;2023-01-19T00:12:09;11.47;;;9.10;;
8958;SDS011;4514;49.476;8.484;2023-01-19T00:14:39;10.17;;;8.63;;
8958;SDS011;4514;49.476;8.484;2023-01-19T00:17:09;11.05;;;9.18;;
8958;SDS011;4514;49.476;8.484;2023-01-19T00:19:35;10.40;;;8.77;;
8958;SDS011;4514;49.476;8.484;2023-01-19T00:22:02;10.10;;;8.87;;
8958;SDS011;4514;49.476;8.484;2023-01-19T00:24:33;10.00;;;8.47;;
8958;SDS011;4514;49.476;8.484;2023-01-19T00:27:00;10.43;;;8.50;;
8958;SDS011;4514;49.476;8.484;2023-01-19T00:29:27;11.13;;;9.13;;
8958;SDS011;4514;49.476;8.484;2023-01-19T00:32:00;11.83;;;9.63;;
8958;SDS011;4514;49.476;8.484;2023-01-19T00:34:31;11.20;;;9.83;;
8958;SDS011;4514;49.476;8.484;2023-01-19T00:37:04;13.10;;;9.77;;
8958;SDS011;4514;49.476;8.484;2023-01-19T00:39:33;12.33;;;9.80;;
8958;SDS011;4514;49.476;8.484;2023-01-19T00:41:58;12.73;;;9.93;;
8958;SDS011;4514;49.476;8.484;2023-01-19T00:44:42;10.03;;;8.90;;
8958;SDS011;4514;49.476;8.484;2023-01-19T00:47:07;11.00;;;9.90;;
8958;SDS011;4514;49.476;8.484;2023-01-19T00:49:35;12.53;;;10.50;;
8958;SDS011;4514;49.476;8.484;2023-01-19T00:52:03;12.47;;;10.40;;
8958;SDS011;4514;49.476;8.484;2023-01-19T00:54:31;12.43;;;9.90;;
8958;SDS011;4514;49.476;8.484;2023-01-19T00:56:56;14.83;;;10.50;;
8958;SDS011;4514;49.476;8.484;2023-01-19T00:59:21;12.63;;;10.47;;
8958;SDS011;4514;49.476;8.484;2023-01-19T01:01:47;11.50;;;10.30;;
8958;SDS011;4514;49.476;8.484;2023-01-19T01:04:12;15.10;;;11.17;;
8958;SDS011;4514;49.476;8.484;2023-01-19T01:06:38;12.20;;;10.80;;
8958;SDS011;4514;49.476;8.484;2023-01-19T01:09:05;12.17;;;10.70;;
8958;SDS011;4514;49.476;8.484;2023-01-19T01:11:38;14.13;;;10.53;;
8958;SDS011;4514;49.476;8.484;2023-01-19T01:14:07;12.87;;;10.93;;
8958;SDS011;4514;49.476;8.484;2023-01-19T01:16:33;13.23;;;10.93;;
8958;SDS011;4514;49.476;8.484;2023-01-19T01:18:58;13.80;;;11.37;;
8958;SDS011;4514;49.476;8.484;2023-01-19T01:21:24;12.67;;;11.00;;
8958;SDS011;4514;49.476;8.484;2023-01-19T01:23:52;13.93;;;11.90;;
8958;SDS011;4514;49.476;8.484;2023-01-19T01:26:22;14.82;;;12.02;;
8958;SDS011;4514;49.476;8.484;2023-01-19T01:28:50;13.67;;;11.27;;
8958;SDS011;4514;49.476;8.484;2023-01-19T01:31:18;14.73;;;11.88;;
8958;SDS011;4514;49.476;8.484;2023-01-19T01:33:48;14.07;;;11.87;;
8958;SDS011;4514;49.476;8.484;2023-01-19T01:36:14;14.07;;;11.93;;
8958;SDS011;4514;49.476;8.484;2023-01-19T01:38:39;13.27;;;11.13;;
8958;SDS011;4514;49.476;8.484;2023-01-19T01:41:05;12.77;;;11.40;;
8958;SDS011;4514;49.476;8.484;2023-01-19T01:43:40;12.83;;;10.87;;
8958;SDS011;4514;49.476;8.484;2023-01-19T01:46:18;12.50;;;10.87;;
8958;SDS011;4514;49.476;8.484;2023-01-19T01:48:48;12.60;;;11.27;;
8958;SDS011;4514;49.476;8.484;2023-01-19T01:51:21;14.40;;;12.17;;
8958;SDS011;4514;49.476;8.484;2023-01-19T01:54:00;14.13;;;12.17;;
8958;SDS011;4514;49.476;8.484;2023-01-19T01:56:35;14.90;;;11.87;;
8958;SDS011;4514;49.476;8.484;2023-01-19T01:59:04;15.93;;;12.77;;
8958;SDS011;4514;49.476;8.484;2023-01-19T02:01:30;15.10;;;12.98;;
8958;SDS011;4514;49.476;8.484;2023-01-19T02:04:14;14.57;;;12.97;;
8958;SDS011;4514;49.476;8.484;2023-01-19T02:06:40;13.53;;;12.13;;
8958;SDS011;4514;49.476;8.484;2023-01-19T02:09:24;14.63;;;13.13;;
8958;SDS011;4514;49.476;8.484;2023-01-19T02:12:10;15.10;;;13.27;;
8958;SDS011;4514;49.476;8.484;2023-01-19T02:14:56;14.77;;;12.27;;
8958;SDS011;4514;49.476;8.484;2023-01-19T02:17:22;16.23;;;13.67;;
8958;SDS011;4514;49.476;8.484;2023-01-19T02:19:47;14.80;;;13.00;;
8958;SDS011;4514;49.476;8.484;2023-01-19T02:22:17;15.17;;;12.47;;
8958;SDS011;4514;49.476;8.484;2023-01-19T02:24:44;17.23;;;14.30;;
8958;SDS011;4514;49.476;8.484;2023-01-19T02:27:10;16.53;;;13.17;;
8958;SDS011;4514;49.476;8.484;2023-01-19T02:29:42;16.77;;;14.20;;
8958;SDS011;4514;49.476;8.484;2023-01-19T02:32:07;16.50;;;14.30;;
8958;SDS011;4514;49.476;8.484;2023-01-19T02:34:33;17.40;;;13.77;;
8958;SDS011;4514;49.476;8.484;2023-01-19T02:37:00;15.70;;;13.60;;
8958;SDS011;4514;49.476;8.484;2023-01-19T02:42:16;17.50;;;14.10;;
8958;SDS011;4514;49.476;8.484;2023-01-19T02:44:44;16.43;;;13.97;;
8958;SDS011;4514;49.476;8.484;2023-01-19T02:47:12;15.83;;;13.93;;
8958;SDS011;4514;49.476;8.484;2023-01-19T02:49:43;16.33;;;13.60;;
8958;SDS011;4514;49.476;8.484;2023-01-19T02:52:14;16.77;;;13.60;;
8958;SDS011;4514;49.476;8.484;2023-01-19T03:03:04;15.83;;;14.13;;
8958;SDS011;4514;49.476;8.484;2023-01-19T03:11:10;16.40;;;14.23;;
8958;SDS011;4514;49.476;8.484;2023-01-19T03:18:42;16.75;;;14.20;;
8958;SDS011;4514;49.476;8.484;2023-01-19T03:21:09;16.73;;;14.43;;
8958;SDS011;4514;49.476;8.484;2023-01-19T03:23:39;15.40;;;13.60;;
8958;SDS011;4514;49.476;8.484;2023-01-19T03:26:08;16.07;;;13.87;;
8958;SDS011;4514;49.476;8.484;2023-01-19T03:28:37;14.97;;;13.37;;
8958;SDS011;4514;49.476;8.484;2023-01-19T03:31:25;19.83;;;14.13;;
8958;SDS011;4514;49.476;8.484;2023-01-19T03:33:51;15.93;;;13.37;;
8958;SDS011;4514;49.476;8.484;2023-01-19T03:36:21;15.73;;;13.90;;
8958;SDS011;4514;49.476;8.484;2023-01-19T03:38:50;16.97;;;14.03;;
8958;SDS011;4514;49.476;8.484;2023-01-19T03:41:16;17.27;;;14.20;;
8958;SDS011;4514;49.476;8.484;2023-01-19T03:43:46;16.03;;;14.33;;
8958;SDS011;4514;49.476;8.484;2023-01-19T03:46:12;15.90;;;14.20;;
8958;SDS011;4514;49.476;8.484;2023-01-19T03:48:41;16.07;;;13.63;;
8958;SDS011;4514;49.476;8.484;2023-01-19T03:51:07;17.00;;;13.67;;
8958;SDS011;4514;49.476;8.484;2023-01-19T03:53:35;15.97;;;12.63;;
8958;SDS011;4514;49.476;8.484;2023-01-19T03:56:01;15.40;;;13.07;;
8958;SDS011;4514;49.476;8.484;2023-01-19T03:58:26;16.53;;;12.90;;
8958;SDS011;4514;49.476;8.484;2023-01-19T04:00:53;14.73;;;12.37;;
8958;SDS011;4514;49.476;8.484;2023-01-19T04:03:18;15.57;;;12.90;;
8958;SDS011;4514;49.476;8.484;2023-01-19T04:05:44;14.63;;;13.10;;
8958;SDS011;4514;49.476;8.484;2023-01-19T04:08:10;14.67;;;13.10;;
8958;SDS011;4514;49.476;8.484;2023-01-19T04:10:37;14.90;;;13.30;;
8958;SDS011;4514;49.476;8.484;2023-01-19T04:13:02;15.00;;;13.20;;
8958;SDS011;4514;49.476;8.484;2023-01-19T04:15:30;16.90;;;13.77;;
8958;SDS011;4514;49.476;8.484;2023-01-19T04:17:58;16.23;;;13.43;;
8958;SDS011;4514;49.476;8.484;2023-01-19T04:20:29;15.57;;;13.50;;
8958;SDS011;4514;49.476;8.484;2023-01-19T04:22:57;14.47;;;12.97;;
8958;SDS011;4514;49.476;8.484;2023-01-19T04:25:23;15.83;;;13.93;;
8958;SDS011;4514;49.476;8.484;2023-01-19T04:27:50;15.93;;;13.37;;
8958;SDS011;4514;49.476;8.484;2023-01-19T04:30:18;14.30;;;12.70;;
8958;SDS011;4514;49.476;8.484;2023-01-19T04:32:46;15.67;;;13.63;;
8958;SDS011;4514;49.476;8.484;2023-01-19T04:35:12;14.90;;;13.07;;
8958;SDS011;4514;49.476;8.484;2023-01-19T04:37:37;15.90;;;13.57;;
8958;SDS011;4514;49.476;8.484;2023-01-19T04:40:05;16.10;;;13.27;;
8958;SDS011;4514;49.476;8.484;2023-01-19T04:42:33;16.33;;;14.63;;
8958;SDS011;4514;49.476;8.484;2023-01-19T04:44:59;15.70;;;13.67;;
8958;SDS011;4514;49.476;8.484;2023-01-19T04:47:24;17.00;;;14.00;;
8958;SDS011;4514;49.476;8.484;2023-01-19T04:49:49;15.17;;;13.40;;
8958;SDS011;4514;49.476;8.484;2023-01-19T04:52:15;17.87;;;13.20;;
8958;SDS011;4514;49.476;8.484;2023-01-19T04:54:42;14.97;;;13.37;;
8958;SDS011;4514;49.476;8.484;2023-01-19T04:57:10;15.83;;;13.27;;
8958;SDS011;4514;49.476;8.484;2023-01-19T04:59:35;14.03;;;12.50;;
8958;SDS011;4514;49.476;8.484;2023-01-19T05:02:01;15.47;;;13.07;;
8958;SDS011;4514;49.476;8.484;2023-01-19T05:04:28;15.63;;;13.23;;
8958;SDS011;4514;49.476;8.484;2023-01-19T05:06:56;17.47;;;14.20;;
8958;SDS011;4514;49.476;8.484;2023-01-19T05:09:26;15.20;;;12.87;;
8958;SDS011;4514;49.476;8.484;2023-01-19T05:11:52;15.57;;;13.83;;
8958;SDS011;4514;49.476;8.484;2023-01-19T05:14:17;17.17;;;13.90;;
8958;SDS011;4514;49.476;8.484;2023-01-19T05:16:42;16.87;;;14.07;;
8958;SDS011;4514;49.476;8.484;2023-01-19T05:19:08;16.00;;;13.87;;
8958;SDS011;4514;49.476;8.484;2023-01-19T05:21:35;15.50;;;13.47;;
8958;SDS011;4514;49.476;8.484;2023-01-19T05:24:01;16.87;;;14.47;;
8958;SDS011;4514;49.476;8.484;2023-01-19T05:26:26;16.10;;;14.40;;
8958;SDS011;4514;49.476;8.484;2023-01-19T05:28:54;15.33;;;13.63;;
8958;SDS011;4514;49.476;8.484;2023-01-19T05:31:20;15.03;;;13.40;;
8958;SDS011;4514;49.476;8.484;2023-01-19T05:33:45;15.63;;;14.00;;
8958;SDS011;4514;49.476;8.484;2023-01-19T05:36:12;15.30;;;13.67;;
8958;SDS011;4514;49.476;8.484;2023-01-19T05:38:42;16.83;;;14.30;;
8958;SDS011;4514;49.476;8.484;2023-01-19T05:41:09;16.67;;;13.50;;
8958;SDS011;4514;49.476;8.484;2023-01-19T05:43:35;14.77;;;13.17;;
8958;SDS011;4514;49.476;8.484;2023-01-19T05:46:03;15.40;;;13.80;;
8958;SDS011;4514;49.476;8.484;2023-01-19T05:48:29;16.07;;;13.80;;
8958;SDS011;4514;49.476;8.484;2023-01-19T05:50:58;15.47;;;13.87;;
8958;SDS011;4514;49.476;8.484;2023-01-19T05:53:24;16.30;;;14.37;;
8958;SDS011;4514;49.476;8.484;2023-01-19T05:55:52;17.27;;;14.67;;
8958;SDS011;4514;49.476;8.484;2023-01-19T05:58:19;17.07;;;15.47;;
8958;SDS011;4514;49.476;8.484;2023-01-19T06:00:45;16.27;;;14.67;;
8958;SDS011;4514;49.476;8.484;2023-01-19T06:03:13;16.67;;;14.90;;
8958;SDS011;4514;49.476;8.484;2023-01-19T06:05:41;17.83;;;14.50;;
8958;SDS011;4514;49.476;8.484;2023-01-19T06:08:11;16.90;;;15.10;;
8958;SDS011;4514;49.476;8.484;2023-01-19T06:10:42;16.30;;;14.67;;
8958;SDS011;4514;49.476;8.484;2023-01-19T06:13:10;16.60;;;14.77;;
8958;SDS011;4514;49.476;8.484;2023-01-19T06:15:36;17.73;;;15.70;;
8958;SDS011;4514;49.476;8.484;2023-01-19T06:18:03;16.80;;;15.00;;
8958;SDS011;4514;49.476;8.484;2023-01-19T06:20:29;18.13;;;16.00;;
8958;SDS011;4514;49.476;8.484;2023-01-19T06:22:56;16.73;;;14.93;;
8958;SDS011;4514;49.476;8.484;2023-01-19T06:25:22;18.60;;;15.23;;
8958;SDS011;4514;49.476;8.484;2023-01-19T06:27:50;15.73;;;14.07;;
8958;SDS011;4514;49.476;8.484;2023-01-19T06:30:15;16.60;;;14.27;;
8958;SDS011;4514;49.476;8.484;2023-01-19T06:32:41;18.13;;;14.23;;
8958;SDS011;4514;49.476;8.484;2023-01-19T06:35:07;15.33;;;13.73;;
8958;SDS011;4514;49.476;8.484;2023-01-19T06:37:36;16.50;;;14.77;;
8958;SDS011;4514;49.476;8.484;2023-01-19T06:40:01;16.47;;;13.97;;
8958;SDS011;4514;49.476;8.484;2023-01-19T06:42:26;15.87;;;14.10;;
8958;SDS011;4514;49.476;8.484;2023-01-19T06:44:57;15.87;;;14.17;;
8958;SDS011;4514;49.476;8.484;2023-01-19T06:47:22;17.10;;;15.25;;
8958;SDS011;4514;49.476;8.484;2023-01-19T06:49:47;16.63;;;14.93;;
8958;SDS011;4514;49.476;8.484;2023-01-19T06:52:13;18.90;;;14.20;;
8958;SDS011;4514;49.476;8.484;2023-01-19T06:54:42;16.30;;;14.60;;
8958;SDS011;4514;49.476;8.484;2023-01-19T06:57:08;16.43;;;14.50;;
8958;SDS011;4514;49.476;8.484;2023-01-19T06:59:36;17.07;;;14.33;;
8958;SDS011;4514;49.476;8.484;2023-01-19T07:02:04;15.53;;;13.93;;
8958;SDS011;4514;49.476;8.484;2023-01-19T07:04:29;15.67;;;13.93;;
8958;SDS011;4514;49.476;8.484;2023-01-19T07:06:55;17.23;;;14.23;;
8958;SDS011;4514;49.476;8.484;2023-01-19T07:09:22;17.83;;;14.60;;
8958;SDS011;4514;49.476;8.484;2023-01-19T07:11:49;16.40;;;14.47;;
8958;SDS011;4514;49.476;8.484;2023-01-19T07:14:17;17.55;;;15.60;;
8958;SDS011;4514;49.476;8.484;2023-01-19T07:16:42;16.40;;;13.90;;
8958;SDS011;4514;49.476;8.484;2023-01-19T07:19:10;17.60;;;15.43;;
8958;SDS011;4514;49.476;8.484;2023-01-19T07:21:35;16.80;;;15.10;;
8958;SDS011;4514;49.476;8.484;2023-01-19T07:24:03;16.57;;;13.43;;
8958;SDS011;4514;49.476;8.484;2023-01-19T07:26:28;16.33;;;13.50;;
8958;SDS011;4514;49.476;8.484;2023-01-19T07:28:54;15.83;;;12.90;;
8958;SDS011;4514;49.476;8.484;2023-01-19T07:31:20;16.40;;;13.30;;
8958;SDS011;4514;49.476;8.484;2023-01-19T07:33:45;15.57;;;13.23;;
8958;SDS011;4514;49.476;8.484;2023-01-19T07:36:12;16.57;;;14.43;;
8958;SDS011;4514;49.476;8.484;2023-01-19T07:38:37;16.57;;;13.30;;
8958;SDS011;4514;49.476;8.484;2023-01-19T07:41:03;17.87;;;15.10;;
8958;SDS011;4514;49.476;8.484;2023-01-19T07:43:30;17.53;;;14.63;;
8958;SDS011;4514;49.476;8.484;2023-01-19T07:45:56;16.07;;;13.77;;
8958;SDS011;4514;49.476;8.484;2023-01-19T07:48:34;14.67;;;13.07;;
8958;SDS011;4514;49.476;8.484;2023-01-19T07:51:00;15.97;;;13.27;;
8958;SDS011;4514;49.476;8.484;2023-01-19T07:53:42;15.63;;;13.50;;
8958;SDS011;4514;49.476;8.484;2023-01-19T07:56:08;15.33;;;13.30;;
8958;SDS011;4514;49.476;8.484;2023-01-19T07:58:36;16.43;;;13.63;;
8958;SDS011;4514;49.476;8.484;2023-01-19T08:01:09;15.17;;;13.40;;
8958;SDS011;4514;49.476;8.484;2023-01-19T08:03:36;17.05;;;14.43;;
8958;SDS011;4514;49.476;8.484;2023-01-19T08:06:01;15.38;;;13.40;;
8958;SDS011;4514;49.476;8.484;2023-01-19T08:08:30;16.63;;;13.10;;
8958;SDS011;4514;49.476;8.484;2023-01-19T08:10:56;15.90;;;14.23;;
8958;SDS011;4514;49.476;8.484;2023-01-19T08:13:21;14.93;;;12.50;;
8958;SDS011;4514;49.476;8.484;2023-01-19T08:15:50;16.47;;;13.10;;
8958;SDS011;4514;49.476;8.484;2023-01-19T08:18:19;15.40;;;13.80;;
8958;SDS011;4514;49.476;8.484;2023-01-19T08:20:45;14.80;;;12.50;;
8958;SDS011;4514;49.476;8.484;2023-01-19T08:23:13;14.67;;;12.83;;
8958;SDS011;4514;49.476;8.484;2023-01-19T08:25:39;15.30;;;12.77;;
8958;SDS011;4514;49.476;8.484;2023-01-19T08:28:09;14.50;;;12.70;;
8958;SDS011;4514;49.476;8.484;2023-01-19T08:30:36;17.13;;;12.70;;
8958;SDS011;4514;49.476;8.484;2023-01-19T08:33:04;15.07;;;13.47;;
8958;SDS011;4514;49.476;8.484;2023-01-19T08:35:35;15.17;;;12.07;;
8958;SDS011;4514;49.476;8.484;2023-01-19T08:38:04;16.13;;;12.37;;
8958;SDS011;4514;49.476;8.484;2023-01-19T08:40:34;17.43;;;13.33;;
8958;SDS011;4514;49.476;8.484;2023-01-19T08:43:02;16.23;;;13.40;;
8958;SDS011;4514;49.476;8.484;2023-01-19T08:45:30;17.57;;;13.03;;
8958;SDS011;4514;49.476;8.484;2023-01-19T08:47:56;15.50;;;13.00;;
8958;SDS011;4514;49.476;8.484;2023-01-19T08:50:23;15.57;;;12.47;;
8958;SDS011;4514;49.476;8.484;2023-01-19T08:52:49;16.37;;;13.03;;
8958;SDS011;4514;49.476;8.484;2023-01-19T08:55:15;13.47;;;12.07;;
8958;SDS011;4514;49.476;8.484;2023-01-19T08:57:40;16.17;;;12.60;;
8958;SDS011;4514;49.476;8.484;2023-01-19T09:00:09;17.67;;;13.40;;
8958;SDS011;4514;49.476;8.484;2023-01-19T09:02:35;13.83;;;12.30;;
8958;SDS011;4514;49.476;8.484;2023-01-19T09:05:01;16.53;;;12.13;;
8958;SDS011;4514;49.476;8.484;2023-01-19T09:07:26;16.60;;;12.67;;
8958;SDS011;4514;49.476;8.484;2023-01-19T09:09:52;15.10;;;12.13;;
8958;SDS011;4514;49.476;8.484;2023-01-19T09:12:19;13.30;;;11.80;;
8958;SDS011;4514;49.476;8.484;2023-01-19T09:14:49;14.63;;;12.50;;
8958;SDS011;4514;49.476;8.484;2023-01-19T09:17:17;14.80;;;12.93;;
8958;SDS011;4514;49.476;8.484;2023-01-19T09:19:44;13.97;;;11.57;;
8958;SDS011;4514;49.476;8.484;2023-01-19T09:22:15;13.87;;;11.63;;
8958;SDS011;4514;49.476;8.484;2023-01-19T09:24:40;12.90;;;11.50;;
8958;SDS011;4514;49.476;8.484;2023-01-19T09:27:06;17.73;;;12.43;;
8958;SDS011;4514;49.476;8.484;2023-01-19T09:29:31;14.57;;;11.70;;
8958;SDS011;4514;49.476;8.484;2023-01-19T09:31:56;14.27;;;11.80;;
8958;SDS011;4514;49.476;8.484;2023-01-19T09:34:22;14.83;;;12.03;;
8958;SDS011;4514;49.476;8.484;2023-01-19T09:36:51;15.00;;;12.20;;
8958;SDS011;4514;49.476;8.484;2023-01-19T09:39:16;14.37;;;11.63;;
8958;SDS011;4514;49.476;8.484;2023-01-19T09:41:43;13.00;;;11.67;;
8958;SDS011;4514;49.476;8.484;2023-01-19T09:44:26;14.10;;;12.13;;
8958;SDS011;4514;49.476;8.484;2023-01-19T09:46:56;14.10;;;11.20;;
8958;SDS011;4514;49.476;8.484;2023-01-19T09:51:58;13.03;;;11.10;;
8958;SDS011;4514;49.476;8.484;2023-01-19T09:55:07;14.07;;;11.80;;
8958;SDS011;4514;49.476;8.484;2023-01-19T09:57:24;12.60;;;10.57;;
8958;SDS011;4514;49.476;8.484;2023-01-19T09:59:56;15.10;;;10.30;;
8958;SDS011;4514;49.476;8.484;2023-01-19T10:05:04;11.33;;;10.13;;
8958;SDS011;4514;49.476;8.484;2023-01-19T10:10:51;12.40;;;10.30;;
8958;SDS011;4514;49.476;8.484;2023-01-19T10:13:20;11.20;;;9.57;;
8958;SDS011;4514;49.476;8.484;2023-01-19T10:18:42;12.03;;;9.87;;
8958;SDS011;4514;49.476;8.484;2023-01-19T10:21:19;11.68;;;9.30;;
8958;SDS011;4514;49.476;8.484;2023-01-19T10:26:50;11.02;;;9.32;;
8958;SDS011;4514;49.476;8.484;2023-01-19T10:29:21;11.07;;;9.20;;
8958;SDS011;4514;49.476;8.484;2023-01-19T10:31:56;10.43;;;9.50;;
8958;SDS011;4514;49.476;8.484;2023-01-19T10:34:29;11.07;;;9.57;;
8958;SDS011;4514;49.476;8.484;2023-01-19T10:36:59;10.52;;;9.38;;
8958;SDS011;4514;49.476;8.484;2023-01-19T10:39:28;11.68;;;10.60;;
8958;SDS011;4514;49.476;8.484;2023-01-19T10:41:56;10.57;;;9.57;;
8958;SDS011;4514;49.476;8.484;2023-01-19T10:44:25;10.05;;;9.02;;
8958;SDS011;4514;49.476;8.484;2023-01-19T10:46:53;10.63;;;9.55;;
8958;SDS011;4514;49.476;8.484;2023-01-19T10:49:43;10.25;;;9.25;;
8958;SDS011;4514;49.476;8.484;2023-01-19T10:52:16;10.80;;;8.88;;
8958;SDS011;4514;49.476;8.484;2023-01-19T10:54:57;9.77;;;8.88;;
8958;SDS011;4514;49.476;8.484;2023-01-19T10:57:35;10.95;;;9.85;;
8958;SDS011;4514;49.476;8.484;2023-01-19T11:00:05;11.88;;;9.80;;
8958;SDS011;4514;49.476;8.484;2023-01-19T11:02:54;11.65;;;9.40;;
8958;SDS011;4514;49.476;8.484;2023-01-19T11:05:21;11.05;;;9.88;;
8958;SDS011;4514;49.476;8.484;2023-01-19T11:07:49;10.90;;;9.83;;
8958;SDS011;4514;49.476;8.484;2023-01-19T11:15:43;12.13;;;10.93;;
8958;SDS011;4514;49.476;8.484;2023-01-19T11:18:22;15.23;;;10.83;;
8958;SDS011;4514;49.476;8.484;2023-01-19T11:20:51;12.83;;;10.27;;
8958;SDS011;4514;49.476;8.484;2023-01-19T11:23:23;12.60;;;9.87;;
8958;SDS011;4514;49.476;8.484;2023-01-19T11:25:51;11.10;;;10.00;;
8958;SDS011;4514;49.476;8.484;2023-01-19T11:28:28;10.77;;;9.65;;
8958;SDS011;4514;49.476;8.484;2023-01-19T11:31:00;11.02;;;9.93;;
8958;SDS011;4514;49.476;8.484;2023-01-19T11:33:35;12.77;;;10.83;;
8958;SDS011;4514;49.476;8.484;2023-01-19T11:38:45;11.47;;;10.30;;
8958;SDS011;4514;49.476;8.484;2023-01-19T11:41:19;12.03;;;10.20;;
8958;SDS011;4514;49.476;8.484;2023-01-19T11:43:53;13.40;;;10.30;;
8958;SDS011;4514;49.476;8.484;2023-01-19T11:46:22;14.30;;;10.57;;
8958;SDS011;4514;49.476;8.484;2023-01-19T11:48:55;12.27;;;10.47;;
8958;SDS011;4514;49.476;8.484;2023-01-19T11:54:32;16.80;;;10.80;;
8958;SDS011;4514;49.476;8.484;2023-01-19T11:57:01;16.50;;;10.90;;
8958;SDS011;4514;49.476;8.484;2023-01-19T11:59:34;11.70;;;10.50;;
8958;SDS011;4514;49.476;8.484;2023-01-19T12:02:00;14.17;;;10.63;;
8958;SDS011;4514;49.476;8.484;2023-01-19T12:04:30;13.17;;;10.57;;
8958;SDS011;4514;49.476;8.484;2023-01-19T12:06:59;14.87;;;10.90;;
8958;SDS011;4514;49.476;8.484;2023-01-19T12:09:44;13.80;;;10.90;;
8958;SDS011;4514;49.476;8.484;2023-01-19T12:12:12;14.00;;;11.40;;
8958;SDS011;4514;49.476;8.484;2023-01-19T12:15:05;12.20;;;10.90;;
8958;SDS011;4514;49.476;8.484;2023-01-19T12:17:35;13.13;;;11.27;;
8958;SDS011;4514;49.476;8.484;2023-01-19T12:20:25;12.40;;;11.03;;
8958;SDS011;4514;49.476;8.484;2023-01-19T12:28:36;11.77;;;10.50;;
8958;SDS011;4514;49.476;8.484;2023-01-19T12:31:05;11.20;;;10.00;;
8958;SDS011;4514;49.476;8.484;2023-01-19T12:43:45;10.23;;;9.23;;
8958;SDS011;4514;49.476;8.484;2023-01-19T12:46:18;11.20;;;9.47;;
8958;SDS011;4514;49.476;8.484;2023-01-19T12:48:47;10.13;;;9.13;;
8958;SDS011;4514;49.476;8.484;2023-01-19T12:51:22;10.60;;;9.20;;
8958;SDS011;4514;49.476;8.484;2023-01-19T12:53:49;10.37;;;8.47;;
8958;SDS011;4514;49.476;8.484;2023-01-19T12:56:18;10.13;;;9.13;;
8958;SDS011;4514;49.476;8.484;2023-01-19T12:58:47;11.40;;;9.10;;
8958;SDS011;4514;49.476;8.484;2023-01-19T13:01:18;9.57;;;8.40;;
8958;SDS011;4514;49.476;8.484;2023-01-19T13:09:33;11.07;;;8.50;;
8958;SDS011;4514;49.476;8.484;2023-01-19T13:14:45;10.40;;;8.93;;
8958;SDS011;4514;49.476;8.484;2023-01-19T13:17:21;11.03;;;8.60;;
8958;SDS011;4514;49.476;8.484;2023-01-19T13:20:03;10.80;;;8.43;;
8958;SDS011;4514;49.476;8.484;2023-01-19T13:25:29;10.17;;;8.93;;
8958;SDS011;4514;49.476;8.484;2023-01-19T13:27:59;10.57;;;8.60;;
8958;SDS011;4514;49.476;8.484;2023-01-19T13:30:31;9.60;;;8.43;;
8958;SDS011;4514;49.476;8.484;2023-01-19T13:33:02;9.93;;;8.17;;
8958;SDS011;4514;49.476;8.484;2023-01-19T13:35:35;11.17;;;8.77;;
8958;SDS011;4514;49.476;8.484;2023-01-19T13:38:02;9.67;;;8.50;;
8958;SDS011;4514;49.476;8.484;2023-01-19T13:40:32;10.63;;;9.00;;
8958;SDS011;4514;49.476;8.484;2023-01-19T13:43:02;13.03;;;9.27;;
8958;SDS011;4514;49.476;8.484;2023-01-19T13:45:28;10.37;;;8.63;;
8958;SDS011;4514;49.476;8.484;2023-01-19T13:47:57;9.00;;;7.87;;
8958;SDS011;4514;49.476;8.484;2023-01-19T13:50:29;9.77;;;8.77;;
8958;SDS011;4514;49.476;8.484;2023-01-19T13:52:56;12.33;;;9.67;;
8958;SDS011;4514;49.476;8.484;2023-01-19T13:55:23;11.70;;;9.20;;
8958;SDS011;4514;49.476;8.484;2023-01-19T13:57:53;11.40;;;9.20;;
8958;SDS011;4514;49.476;8.484;2023-01-19T14:00:23;10.33;;;8.90;;
8958;SDS011;4514;49.476;8.484;2023-01-19T14:08:00;9.30;;;8.17;;
8958;SDS011;4514;49.476;8.484;2023-01-19T14:13:12;9.80;;;8.30;;
8958;SDS011;4514;49.476;8.484;2023-01-19T14:15:56;10.90;;;7.73;;
8958;SDS011;4514;49.476;8.484;2023-01-19T14:18:26;11.33;;;7.93;;
8958;SDS011;4514;49.476;8.484;2023-01-19T14:23:37;9.40;;;8.43;;
8958;SDS011;4514;49.476;8.484;2023-01-19T14:29:22;9.83;;;8.27;;
8958;SDS011;4514;49.476;8.484;2023-01-19T14:32:04;11.90;;;8.50;;
8958;SDS011;4514;49.476;8.484;2023-01-19T14:37:00;10.33;;;7.93;;
8958;SDS011;4514;49.476;8.484;2023-01-19T14:39:27;8.70;;;7.80;;
8958;SDS011;4514;49.476;8.484;2023-01-19T14:41:57;9.83;;;7.60;;
8958;SDS011;4514;49.476;8.484;2023-01-19T14:44:28;9.67;;;7.80;;
8958;SDS011;4514;49.476;8.484;2023-01-19T14:46:56;9.77;;;8.57;;
8958;SDS011;4514;49.476;8.484;2023-01-19T14:51:52;10.63;;;8.40;;
8958;SDS011;4514;49.476;8.484;2023-01-19T14:54:26;11.10;;;7.67;;
8958;SDS011;4514;49.476;8.484;2023-01-19T14:56:55;8.07;;;7.20;;
8958;SDS011;4514;49.476;8.484;2023-01-19T14:59:20;7.67;;;6.87;;
8958;SDS011;4514;49.476;8.484;2023-01-19T15:01:46;8.55;;;7.38;;
8958;SDS011;4514;49.476;8.484;2023-01-19T15:04:11;8.67;;;6.53;;
8958;SDS011;4514;49.476;8.484;2023-01-19T15:06:38;8.07;;;6.20;;
8958;SDS011;4514;49.476;8.484;2023-01-19T15:09:05;10.17;;;6.77;;
8958;SDS011;4514;49.476;8.484;2023-01-19T15:11:33;8.33;;;6.47;;
8958;SDS011;4514;49.476;8.484;2023-01-19T15:13:59;9.03;;;6.70;;
8958;SDS011;4514;49.476;8.484;2023-01-19T15:16:26;7.53;;;6.77;;
8958;SDS011;4514;49.476;8.484;2023-01-19T15:18:55;10.40;;;6.27;;
8958;SDS011;4514;49.476;8.484;2023-01-19T15:21:21;8.27;;;6.23;;
8958;SDS011;4514;49.476;8.484;2023-01-19T15:23:50;8.87;;;6.53;;
8958;SDS011;4514;49.476;8.484;2023-01-19T15:26:22;8.03;;;5.90;;
8958;SDS011;4514;49.476;8.484;2023-01-19T15:28:49;9.83;;;5.97;;
8958;SDS011;4514;49.476;8.484;2023-01-19T15:31:20;8.68;;;6.82;;
8958;SDS011;4514;49.476;8.484;2023-01-19T15:33:48;12.17;;;7.00;;
8958;SDS011;4514;49.476;8.484;2023-01-19T15:36:15;6.60;;;6.00;;
8958;SDS011;4514;49.476;8.484;2023-01-19T15:38:44;7.43;;;6.20;;
8958;SDS011;4514;49.476;8.484;2023-01-19T15:43:41;8.63;;;6.33;;
8958;SDS011;4514;49.476;8.484;2023-01-19T15:46:07;10.50;;;6.33;;
8958;SDS011;4514;49.476;8.484;2023-01-19T15:48:35;8.10;;;6.50;;
8958;SDS011;4514;49.476;8.484;2023-01-19T15:51:01;10.77;;;6.43;;
8958;SDS011;4514;49.476;8.484;2023-01-19T15:53:29;8.90;;;6.77;;
8958;SDS011;4514;49.476;8.484;2023-01-19T15:55:55;9.53;;;6.03;;
8958;SDS011;4514;49.476;8.484;2023-01-19T15:58:21;7.97;;;6.70;;
8958;SDS011;4514;49.476;8.484;2023-01-19T16:00:54;7.07;;;5.90;;
8958;SDS011;4514;49.476;8.484;2023-01-19T16:03:25;9.77;;;6.60;;
8958;SDS011;4514;49.476;8.484;2023-01-19T16:05:51;7.77;;;5.97;;
8958;SDS011;4514;49.476;8.484;2023-01-19T16:08:16;8.33;;;5.83;;
8958;SDS011;4514;49.476;8.484;2023-01-19T16:10:42;7.27;;;6.10;;
8958;SDS011;4514;49.476;8.484;2023-01-19T16:13:10;7.97;;;6.37;;
8958;SDS011;4514;49.476;8.484;2023-01-19T16:15:36;7.43;;;5.93;;
8958;SDS011;4514;49.476;8.484;2023-01-19T16:18:02;7.80;;;5.80;;
8958;SDS011;4514;49.476;8.484;2023-01-19T16:20:28;7.07;;;6.38;;
8958;SDS011;4514;49.476;8.484;2023-01-19T16:22:56;6.97;;;5.90;;
8958;SDS011;4514;49.476;8.484;2023-01-19T16:25:23;7.03;;;6.10;;
8958;SDS011;4514;49.476;8.484;2023-01-19T16:27:49;8.63;;;6.60;;
8958;SDS011;4514;49.476;8.484;2023-01-19T16:30:17;6.53;;;5.80;;
8958;SDS011;4514;49.476;8.484;2023-01-19T16:32:43;7.23;;;6.20;;
8958;SDS011;4514;49.476;8.484;2023-01-19T16:35:09;7.90;;;6.83;;
8958;SDS011;4514;49.476;8.484;2023-01-19T16:37:36;10.50;;;6.60;;
8958;SDS011;4514;49.476;8.484;2023-01-19T16:40:02;8.37;;;6.50;;
8958;SDS011;4514;49.476;8.484;2023-01-19T16:42:33;8.00;;;7.20;;